Doylestown, Pennsylvania
Current Conditions -  °F | °C
As of 7:54 AM on Wednesday 26 Nov 2014 (Local Time) from KDYL Reporting Station
Light Rain Light Rain  
Wind Chill: 32°   Ceiling: 3600
Heat Index: 37°   Visibility: 10mi
Dew Point: 36°   Wind: 6mph
Humidity: 96%   Direction: 40°NE
Pressure: 30.11"   Gusts: NA
Location:  40.31°N, 75.13°W
Report Text: KDYL 261254Z AUTO 04005KT 10SM -RA OVC036 03/02 A3011 RMK AO2 SLP200 P0009 T00280022
Loading
Personal Weather Stations






























Interactive Weather Map New forecast layout! Learn more

10-Day Weather Forecast

Advertisements
Track Severe Weather on mobile